createdAt,value
2023-02-02T00:00:36.587Z,0.00
2023-02-02T00:01:36.596Z,0.00
2023-02-02T00:02:36.621Z,0.00
2023-02-02T00:03:36.606Z,0.00
2023-02-02T00:04:36.558Z,0.00
2023-02-02T00:05:36.552Z,0.00
2023-02-02T00:06:36.543Z,0.00
2023-02-02T00:07:36.541Z,0.00
2023-02-02T00:08:36.530Z,0.00
2023-02-02T00:09:36.511Z,0.00
2023-02-02T00:10:36.503Z,0.00
2023-02-02T00:11:36.516Z,0.00
2023-02-02T00:12:36.485Z,0.00
2023-02-02T00:13:36.473Z,0.00
2023-02-02T00:14:36.477Z,0.00
2023-02-02T00:15:36.460Z,0.00
2023-02-02T00:16:36.572Z,0.00
2023-02-02T00:17:36.448Z,0.00
2023-02-02T00:18:36.433Z,0.00
2023-02-02T00:19:36.425Z,0.00
2023-02-02T00:20:36.423Z,0.00
2023-02-02T00:21:36.403Z,0.00
2023-02-02T00:22:36.396Z,0.00
2023-02-02T00:23:36.397Z,0.00
2023-02-02T00:24:36.384Z,0.00
2023-02-02T00:25:36.372Z,0.00
2023-02-02T00:26:36.446Z,0.00
2023-02-02T00:27:36.353Z,0.00
2023-02-02T00:28:36.354Z,0.00
2023-02-02T00:29:36.343Z,0.00
2023-02-02T00:30:36.382Z,0.00
2023-02-02T00:31:36.392Z,0.00
2023-02-02T00:32:36.321Z,0.00
2023-02-02T00:33:36.320Z,0.00
2023-02-02T00:34:36.298Z,0.00
2023-02-02T00:35:36.289Z,0.00
2023-02-02T00:36:36.278Z,0.00
2023-02-02T00:37:36.272Z,0.00
2023-02-02T00:38:36.258Z,0.00
2023-02-02T00:39:36.270Z,0.00
2023-02-02T00:40:36.240Z,0.00
2023-02-02T00:41:36.233Z,0.00
2023-02-02T00:42:36.231Z,0.00
2023-02-02T00:43:36.225Z,0.00
2023-02-02T00:44:36.209Z,0.00
2023-02-02T00:45:36.212Z,0.00
2023-02-02T00:46:36.219Z,0.00
2023-02-02T00:47:36.183Z,0.00
2023-02-02T00:48:36.189Z,0.00
2023-02-02T00:49:36.198Z,0.00
2023-02-02T00:50:36.160Z,0.00
2023-02-02T00:51:36.179Z,0.00
2023-02-02T00:52:36.154Z,0.00
2023-02-02T00:53:36.163Z,0.00
2023-02-02T00:54:36.153Z,0.00
2023-02-02T00:55:36.116Z,0.00
2023-02-02T00:56:36.126Z,0.00
2023-02-02T00:57:36.111Z,0.00
2023-02-02T00:58:36.116Z,0.00
2023-02-02T00:59:36.084Z,0.00
2023-02-02T01:00:36.091Z,0.00
2023-02-02T01:01:36.076Z,0.00
2023-02-02T01:02:36.064Z,0.00
2023-02-02T01:03:36.071Z,0.00
2023-02-02T01:04:36.051Z,0.00
2023-02-02T01:05:36.059Z,0.00
2023-02-02T01:06:36.031Z,0.00
2023-02-02T01:07:36.040Z,0.00
2023-02-02T01:08:36.006Z,0.00
2023-02-02T01:09:36.001Z,0.00
2023-02-02T01:10:36.024Z,0.00
2023-02-02T01:11:36.002Z,0.00
2023-02-02T01:12:35.989Z,0.00
2023-02-02T01:13:35.957Z,0.00
2023-02-02T01:14:35.947Z,0.00
2023-02-02T01:15:35.937Z,0.00
2023-02-02T01:16:36.112Z,0.00
2023-02-02T01:17:35.930Z,0.00
2023-02-02T01:18:35.912Z,0.00
2023-02-02T01:19:35.938Z,0.00
2023-02-02T01:20:35.903Z,0.00
2023-02-02T01:21:35.897Z,0.00
2023-02-02T01:22:35.893Z,0.00
2023-02-02T01:23:35.877Z,0.00
2023-02-02T01:24:35.865Z,0.00
2023-02-02T01:25:35.864Z,0.00
2023-02-02T01:26:35.886Z,0.00
2023-02-02T01:27:35.841Z,0.00
2023-02-02T01:28:35.826Z,0.00
2023-02-02T01:29:35.814Z,0.00
2023-02-02T01:30:35.831Z,0.00
2023-02-02T01:31:35.859Z,0.00
2023-02-02T01:32:35.806Z,0.00
2023-02-02T01:33:35.794Z,0.00
2023-02-02T01:34:35.780Z,0.00
2023-02-02T01:35:35.778Z,0.00
2023-02-02T01:36:35.774Z,0.00
2023-02-02T01:37:35.757Z,0.00
2023-02-02T01:38:35.758Z,0.00
2023-02-02T01:39:35.735Z,0.00
2023-02-02T01:40:35.754Z,0.00
2023-02-02T01:41:35.722Z,0.00
2023-02-02T01:42:35.723Z,0.00
2023-02-02T01:43:35.703Z,0.00
2023-02-02T01:44:35.696Z,0.00
2023-02-02T01:45:35.738Z,0.00
2023-02-02T01:46:35.695Z,0.00
2023-02-02T01:47:35.665Z,0.00
2023-02-02T01:48:35.654Z,0.00
2023-02-02T01:49:35.670Z,0.00
2023-02-02T01:50:35.638Z,0.00
2023-02-02T01:51:35.641Z,0.00
2023-02-02T01:52:35.645Z,0.00
2023-02-02T01:53:35.615Z,0.00
2023-02-02T01:54:35.606Z,0.00
2023-02-02T01:55:35.600Z,0.00
2023-02-02T01:56:35.592Z,0.00
2023-02-02T01:57:35.578Z,0.00
2023-02-02T01:58:35.571Z,0.00
2023-02-02T01:59:35.567Z,0.00
2023-02-02T02:00:35.561Z,0.00
2023-02-02T02:01:35.612Z,0.00
2023-02-02T02:02:35.631Z,0.00
2023-02-02T02:03:35.534Z,0.00
2023-02-02T02:04:35.528Z,0.00
2023-02-02T02:05:35.514Z,0.00
2023-02-02T02:06:35.498Z,0.00
2023-02-02T02:07:35.506Z,0.00
2023-02-02T02:08:35.489Z,0.00
2023-02-02T02:09:35.482Z,0.00
2023-02-02T02:10:35.468Z,0.00
2023-02-02T02:11:35.463Z,0.00
2023-02-02T02:12:35.453Z,0.00
2023-02-02T02:13:35.447Z,0.00
2023-02-02T02:14:35.441Z,0.00
2023-02-02T02:15:35.428Z,0.00
2023-02-02T02:16:35.427Z,0.00
2023-02-02T02:17:35.419Z,0.00
2023-02-02T02:18:35.404Z,0.00
2023-02-02T02:19:35.393Z,0.00
2023-02-02T02:20:35.387Z,0.00
2023-02-02T02:21:35.386Z,0.00
2023-02-02T02:22:35.373Z,0.00
2023-02-02T02:23:35.356Z,0.00
2023-02-02T02:24:35.344Z,0.00
2023-02-02T02:25:35.337Z,0.00
2023-02-02T02:26:35.381Z,0.00
2023-02-02T02:27:35.333Z,0.00
2023-02-02T02:28:35.317Z,0.00
2023-02-02T02:29:35.309Z,0.00
2023-02-02T02:30:35.389Z,0.00
2023-02-02T02:31:35.428Z,0.00
2023-02-02T02:32:35.289Z,0.00
2023-02-02T02:33:35.271Z,0.00
2023-02-02T02:34:35.264Z,0.00
2023-02-02T02:35:35.252Z,0.00
2023-02-02T02:36:35.246Z,0.00
2023-02-02T02:37:35.235Z,0.00
2023-02-02T02:38:35.239Z,0.00
2023-02-02T02:39:35.215Z,0.00
2023-02-02T02:40:35.215Z,0.00
2023-02-02T02:41:35.200Z,0.00
2023-02-02T02:42:35.190Z,0.00
2023-02-02T02:43:35.187Z,0.00
2023-02-02T02:44:35.177Z,0.00
2023-02-02T02:45:35.167Z,0.00
2023-02-02T02:46:35.156Z,0.00
2023-02-02T02:47:35.154Z,0.00
2023-02-02T02:48:35.141Z,0.00
2023-02-02T02:49:35.143Z,0.00
2023-02-02T02:50:35.129Z,0.00
2023-02-02T02:51:35.123Z,0.00
2023-02-02T02:52:35.104Z,0.00
2023-02-02T02:53:35.095Z,0.00
2023-02-02T02:54:35.092Z,0.00
2023-02-02T02:55:35.083Z,0.00
2023-02-02T02:56:35.077Z,0.00
2023-02-02T02:57:35.061Z,0.00
2023-02-02T02:58:35.057Z,0.00
2023-02-02T02:59:35.047Z,0.00
2023-02-02T03:00:35.037Z,0.00
2023-02-02T03:01:35.061Z,0.00
2023-02-02T03:02:35.062Z,0.00
2023-02-02T03:03:35.011Z,0.00
2023-02-02T03:04:35.001Z,0.00
2023-02-02T03:05:35.014Z,0.00
2023-02-02T03:06:34.981Z,0.00
2023-02-02T03:07:34.976Z,0.00
2023-02-02T03:08:34.973Z,0.00
2023-02-02T03:09:34.973Z,0.00
2023-02-02T03:10:34.942Z,0.00
2023-02-02T03:11:34.947Z,0.00
2023-02-02T03:12:34.932Z,0.00
2023-02-02T03:13:34.920Z,0.00
2023-02-02T03:14:34.929Z,0.00
2023-02-02T03:15:34.958Z,0.00
2023-02-02T03:16:34.908Z,0.00
2023-02-02T03:17:34.883Z,0.00
2023-02-02T03:18:34.889Z,0.00
2023-02-02T03:19:34.870Z,0.00
2023-02-02T03:20:34.853Z,0.00
2023-02-02T03:21:34.859Z,0.00
2023-02-02T03:22:34.849Z,0.00
2023-02-02T03:23:34.838Z,0.00
2023-02-02T03:24:34.833Z,0.00
2023-02-02T03:25:34.817Z,0.00
2023-02-02T03:26:34.828Z,0.00
2023-02-02T03:27:34.805Z,0.00
2023-02-02T03:28:34.792Z,0.00
2023-02-02T03:29:34.829Z,0.00
2023-02-02T03:30:34.844Z,0.00
2023-02-02T03:31:34.804Z,0.00
2023-02-02T03:32:34.764Z,0.00
2023-02-02T03:33:34.748Z,0.00
2023-02-02T03:34:34.743Z,0.00
2023-02-02T03:35:34.741Z,0.00
2023-02-02T03:36:34.726Z,0.00
2023-02-02T03:37:34.718Z,0.00
2023-02-02T03:38:34.704Z,0.00
2023-02-02T03:39:34.703Z,0.00
2023-02-02T03:40:34.697Z,0.00
2023-02-02T03:41:34.684Z,0.00
2023-02-02T03:42:34.672Z,0.00
2023-02-02T03:43:34.664Z,0.00
2023-02-02T03:44:34.654Z,0.00
2023-02-02T03:45:34.650Z,0.00
2023-02-02T03:46:34.695Z,0.00
2023-02-02T03:47:34.643Z,0.00
2023-02-02T03:48:34.617Z,0.00
2023-02-02T03:49:34.615Z,0.00
2023-02-02T03:50:34.606Z,0.00
2023-02-02T03:51:34.602Z,0.00
2023-02-02T03:52:34.586Z,0.00
2023-02-02T03:53:34.586Z,0.00
2023-02-02T03:54:34.571Z,0.00
2023-02-02T03:55:34.557Z,0.00
2023-02-02T03:56:34.567Z,0.00
2023-02-02T03:57:34.544Z,0.00
2023-02-02T03:58:34.532Z,0.00
2023-02-02T03:59:34.527Z,0.00
2023-02-02T04:00:34.532Z,0.00
2023-02-02T04:01:34.538Z,0.00
2023-02-02T04:02:34.560Z,0.00
2023-02-02T04:03:34.491Z,0.00
2023-02-02T04:04:34.483Z,0.00
2023-02-02T04:05:34.472Z,0.00
2023-02-02T04:06:34.467Z,0.00
2023-02-02T04:07:34.462Z,0.00
2023-02-02T04:08:34.453Z,0.00
2023-02-02T04:09:34.437Z,0.00
2023-02-02T04:10:34.432Z,0.00
2023-02-02T04:11:34.429Z,0.00
2023-02-02T04:12:34.413Z,0.00
2023-02-02T04:13:34.400Z,0.00
2023-02-02T04:14:34.398Z,0.00
2023-02-02T04:15:34.389Z,0.00
2023-02-02T04:16:34.419Z,0.00
2023-02-02T04:17:34.371Z,0.00
2023-02-02T04:18:34.365Z,0.00
2023-02-02T04:19:34.360Z,0.00
2023-02-02T04:20:34.360Z,0.00
2023-02-02T04:21:34.333Z,0.00
2023-02-02T04:22:34.326Z,0.00
2023-02-02T04:23:34.317Z,0.00
2023-02-02T04:24:35.600Z,0.00
2023-02-02T04:25:34.307Z,0.00
2023-02-02T04:26:34.330Z,0.00
2023-02-02T04:27:34.402Z,0.00
2023-02-02T04:28:34.293Z,0.00
2023-02-02T04:29:34.268Z,0.00
2023-02-02T04:30:34.312Z,0.00
2023-02-02T04:31:34.329Z,0.00
2023-02-02T04:32:34.246Z,0.00
2023-02-02T04:33:34.240Z,0.00
2023-02-02T04:34:34.237Z,0.00
2023-02-02T04:35:34.241Z,0.00
2023-02-02T04:36:34.207Z,0.00
2023-02-02T04:37:34.197Z,0.00
2023-02-02T04:38:34.187Z,0.00
2023-02-02T04:39:34.181Z,0.00
2023-02-02T04:40:34.190Z,0.00
2023-02-02T04:41:34.163Z,0.00
2023-02-02T04:42:34.161Z,0.00
2023-02-02T04:43:34.147Z,0.00
2023-02-02T04:44:34.139Z,0.00
2023-02-02T04:45:34.168Z,0.00
2023-02-02T04:46:34.119Z,0.00
2023-02-02T04:47:34.108Z,0.00
2023-02-02T04:48:34.105Z,0.00
2023-02-02T04:49:34.096Z,0.00
2023-02-02T04:50:34.096Z,0.00
2023-02-02T04:51:34.082Z,0.00
2023-02-02T04:52:34.062Z,0.00
2023-02-02T04:53:34.068Z,0.00
2023-02-02T04:54:34.058Z,0.00
2023-02-02T04:55:34.077Z,0.00
2023-02-02T04:56:34.028Z,0.00
2023-02-02T04:57:34.020Z,0.00
2023-02-02T04:58:34.027Z,0.00
2023-02-02T04:59:34.000Z,0.00
2023-02-02T05:00:34.018Z,0.00
2023-02-02T05:01:33.994Z,0.00
2023-02-02T05:02:33.981Z,0.00
2023-02-02T05:03:33.979Z,0.00
2023-02-02T05:04:33.999Z,0.00
2023-02-02T05:05:33.967Z,0.00
2023-02-02T05:06:33.943Z,0.00
2023-02-02T05:07:33.943Z,0.00
2023-02-02T05:08:33.928Z,0.00
2023-02-02T05:09:33.915Z,0.00
2023-02-02T05:10:33.911Z,0.00
2023-02-02T05:11:33.927Z,0.00
2023-02-02T05:12:33.898Z,0.00
2023-02-02T05:13:33.883Z,0.00
2023-02-02T05:14:33.878Z,0.00
2023-02-02T05:15:33.867Z,0.00
2023-02-02T05:16:33.908Z,0.00
2023-02-02T05:17:33.857Z,0.00
2023-02-02T05:18:33.843Z,0.00
2023-02-02T05:19:33.867Z,0.00
2023-02-02T05:20:33.828Z,0.00
2023-02-02T05:21:33.820Z,0.00
2023-02-02T05:22:33.811Z,0.00
2023-02-02T05:23:33.805Z,0.00
2023-02-02T05:24:33.789Z,0.00
2023-02-02T05:25:33.802Z,0.00
2023-02-02T05:26:33.803Z,0.00
2023-02-02T05:27:33.773Z,0.00
2023-02-02T05:28:33.757Z,0.00
2023-02-02T05:29:33.746Z,0.00
2023-02-02T05:30:33.913Z,0.00
2023-02-02T05:31:33.752Z,0.00
2023-02-02T05:32:33.723Z,0.00
2023-02-02T05:33:33.717Z,0.00
2023-02-02T05:34:33.705Z,0.00
2023-02-02T05:35:33.698Z,0.00
2023-02-02T05:36:33.716Z,0.00
2023-02-02T05:37:33.736Z,0.00
2023-02-02T05:38:33.676Z,0.00
2023-02-02T05:39:33.672Z,0.00
2023-02-02T05:40:33.652Z,0.00
2023-02-02T05:41:33.653Z,0.00
2023-02-02T05:42:33.633Z,0.00
2023-02-02T05:43:33.626Z,0.00
2023-02-02T05:44:33.618Z,0.00
2023-02-02T05:45:33.720Z,0.00
2023-02-02T05:46:33.600Z,0.00
2023-02-02T05:47:33.592Z,0.00
2023-02-02T05:48:33.587Z,0.00
2023-02-02T05:49:33.578Z,0.00
2023-02-02T05:50:33.579Z,0.00
2023-02-02T05:51:33.557Z,0.00
2023-02-02T05:52:33.551Z,0.00
2023-02-02T05:53:33.543Z,0.00
2023-02-02T05:54:33.543Z,0.00
2023-02-02T05:55:33.530Z,0.00
2023-02-02T05:56:33.512Z,0.00
2023-02-02T05:57:33.511Z,0.00
2023-02-02T05:58:33.497Z,0.00
2023-02-02T05:59:33.490Z,0.00
2023-02-02T06:00:33.489Z,0.00
2023-02-02T06:01:33.470Z,0.00
2023-02-02T06:02:33.492Z,0.00
2023-02-02T06:03:33.558Z,0.00
2023-02-02T06:04:33.440Z,0.00
2023-02-02T06:05:33.434Z,0.00
2023-02-02T06:06:33.431Z,0.00
2023-02-02T06:07:33.427Z,0.00
2023-02-02T06:08:33.414Z,0.00
2023-02-02T06:09:33.408Z,0.00
2023-02-02T06:10:33.397Z,0.00
2023-02-02T06:11:33.381Z,0.00
2023-02-02T06:12:33.375Z,0.00
2023-02-02T06:13:33.370Z,0.00
2023-02-02T06:14:33.377Z,0.00
2023-02-02T06:15:33.410Z,0.00
2023-02-02T06:16:33.339Z,0.00
2023-02-02T06:17:33.334Z,0.00
2023-02-02T06:18:33.331Z,0.00
2023-02-02T06:19:33.315Z,0.00
2023-02-02T06:20:33.310Z,0.00
2023-02-02T06:21:33.300Z,0.00
2023-02-02T06:22:33.289Z,0.00
2023-02-02T06:23:33.292Z,0.00
2023-02-02T06:24:33.274Z,0.00
2023-02-02T06:25:33.262Z,0.00
2023-02-02T06:26:33.409Z,0.00
2023-02-02T06:27:33.247Z,0.00
2023-02-02T06:28:33.242Z,0.00
2023-02-02T06:29:33.233Z,0.00
2023-02-02T06:30:33.220Z,0.00
2023-02-02T06:31:33.290Z,0.00
2023-02-02T06:32:33.195Z,0.00
2023-02-02T06:33:33.191Z,0.00
2023-02-02T06:34:33.196Z,0.00
2023-02-02T06:35:33.190Z,0.00
2023-02-02T06:36:33.159Z,0.00
2023-02-02T06:37:33.157Z,0.00
2023-02-02T06:38:33.152Z,0.00
2023-02-02T06:39:33.140Z,0.00
2023-02-02T06:40:33.149Z,0.00
2023-02-02T06:41:33.132Z,0.00
2023-02-02T06:42:33.117Z,0.00
2023-02-02T06:43:33.124Z,0.00
2023-02-02T06:44:33.106Z,0.00
2023-02-02T06:45:33.092Z,0.00
2023-02-02T06:46:33.179Z,0.00
2023-02-02T06:47:33.079Z,0.00
2023-02-02T06:48:33.058Z,0.00
2023-02-02T06:49:33.052Z,0.00
2023-02-02T06:50:33.041Z,0.00
2023-02-02T06:51:33.035Z,0.00
2023-02-02T06:52:33.037Z,0.00
2023-02-02T06:53:33.058Z,0.00
2023-02-02T06:54:33.011Z,0.00
2023-02-02T06:55:33.004Z,0.00
2023-02-02T06:56:33.002Z,4.00
2023-02-02T06:57:32.989Z,4.00
2023-02-02T06:58:32.981Z,4.00
2023-02-02T06:59:32.970Z,0.00
2023-02-02T07:00:32.958Z,0.00
2023-02-02T07:01:32.979Z,4.00
2023-02-02T07:02:32.996Z,4.00
2023-02-02T07:03:32.953Z,8.00
2023-02-02T07:04:32.918Z,4.00
2023-02-02T07:05:32.924Z,8.00
2023-02-02T07:06:32.910Z,12.00
2023-02-02T07:07:32.892Z,8.00
2023-02-02T07:08:32.892Z,16.00
2023-02-02T07:09:32.885Z,16.00
2023-02-02T07:11:10.991Z,12.00
2023-02-02T07:11:34.698Z,16.00
2023-02-02T07:12:32.851Z,12.00
2023-02-02T07:13:32.853Z,12.00
2023-02-02T07:14:32.837Z,12.00
2023-02-02T07:15:32.828Z,12.00
2023-02-02T07:16:32.848Z,12.00
2023-02-02T07:17:32.812Z,12.00
2023-02-02T07:18:32.803Z,12.00
2023-02-02T07:19:32.799Z,12.00
2023-02-02T07:20:32.778Z,12.00
2023-02-02T07:21:32.775Z,12.00
2023-02-02T07:22:32.773Z,16.00
2023-02-02T07:23:32.767Z,20.00
2023-02-02T07:24:32.749Z,32.00
2023-02-02T07:25:32.749Z,32.00
2023-02-02T07:26:32.843Z,36.00
2023-02-02T07:27:32.733Z,32.00
2023-02-02T07:28:32.715Z,36.00
2023-02-02T07:29:32.706Z,40.00
2023-02-02T07:30:32.732Z,40.00
2023-02-02T07:31:35.897Z,36.00
2023-02-02T07:32:32.679Z,40.00
2023-02-02T07:33:32.683Z,52.00
2023-02-02T07:34:32.661Z,56.00
2023-02-02T07:35:32.653Z,44.00
2023-02-02T07:36:32.658Z,52.00
2023-02-02T07:37:32.631Z,76.00
2023-02-02T07:38:32.634Z,64.00
2023-02-02T07:39:32.654Z,68.00
2023-02-02T07:40:32.615Z,80.00
2023-02-02T07:41:32.603Z,72.00
2023-02-02T07:42:32.598Z,84.00
2023-02-02T07:43:32.597Z,72.00
2023-02-02T07:44:32.580Z,60.00
2023-02-02T07:45:32.581Z,76.00
2023-02-02T07:46:32.609Z,88.00
2023-02-02T07:47:32.559Z,100.00
2023-02-02T07:48:32.544Z,76.00
2023-02-02T07:49:32.530Z,96.00
2023-02-02T07:50:32.536Z,88.00
2023-02-02T07:51:32.524Z,80.00
2023-02-02T07:52:32.508Z,72.00
2023-02-02T07:53:32.495Z,68.00
2023-02-02T07:54:32.488Z,68.00
2023-02-02T07:55:32.654Z,84.00
2023-02-02T07:56:32.472Z,60.00
2023-02-02T07:57:32.469Z,52.00
2023-02-02T07:58:32.458Z,48.00
2023-02-02T07:59:32.670Z,52.00
2023-02-02T08:00:32.473Z,48.00
2023-02-02T08:01:32.494Z,48.00
2023-02-02T08:02:32.443Z,44.00
2023-02-02T08:03:32.412Z,44.00
2023-02-02T08:04:32.427Z,52.00
2023-02-02T08:05:32.415Z,56.00
2023-02-02T08:06:32.402Z,64.00
2023-02-02T08:07:32.397Z,84.00
2023-02-02T08:08:32.386Z,84.00
2023-02-02T08:09:32.366Z,96.00
2023-02-02T08:10:32.362Z,88.00
2023-02-02T08:11:32.357Z,96.00
2023-02-02T08:12:32.337Z,76.00
2023-02-02T08:13:32.326Z,104.00
2023-02-02T08:14:32.334Z,88.00
2023-02-02T08:15:32.308Z,88.00
2023-02-02T08:16:32.352Z,136.00
2023-02-02T08:17:32.298Z,128.00
2023-02-02T08:18:32.280Z,136.00
2023-02-02T08:19:32.279Z,120.00
2023-02-02T08:20:32.266Z,124.00
2023-02-02T08:21:32.252Z,160.00
2023-02-02T08:22:32.266Z,144.00
2023-02-02T08:23:32.241Z,152.00
2023-02-02T08:24:32.246Z,140.00
2023-02-02T08:25:32.256Z,140.00
2023-02-02T08:26:32.353Z,124.00
2023-02-02T08:27:32.207Z,144.00
2023-02-02T08:28:32.206Z,144.00
2023-02-02T08:29:32.196Z,144.00
2023-02-02T08:30:32.205Z,124.00
2023-02-02T08:31:32.236Z,140.00
2023-02-02T08:32:32.169Z,140.00
2023-02-02T08:33:32.156Z,120.00
2023-02-02T08:34:32.145Z,120.00
2023-02-02T08:35:32.138Z,116.00
2023-02-02T08:36:32.150Z,116.00
2023-02-02T08:37:32.123Z,148.00
2023-02-02T08:38:32.117Z,116.00
2023-02-02T08:39:32.114Z,120.00
2023-02-02T08:40:32.116Z,112.00
2023-02-02T08:41:32.115Z,120.00
2023-02-02T08:42:32.092Z,124.00
2023-02-02T08:43:32.066Z,120.00
2023-02-02T08:45:00.314Z,136.00
2023-02-02T08:46:01.492Z,152.00
2023-02-02T08:46:32.079Z,132.00
2023-02-02T08:47:32.039Z,132.00
2023-02-02T08:48:32.037Z,128.00
2023-02-02T08:49:32.023Z,156.00
2023-02-02T08:50:32.021Z,132.00
2023-02-02T08:51:32.002Z,136.00
2023-02-02T08:52:31.989Z,148.00
2023-02-02T08:53:31.982Z,148.00
2023-02-02T08:54:31.978Z,160.00
2023-02-02T08:55:31.973Z,168.00
2023-02-02T08:56:31.959Z,148.00
2023-02-02T08:57:31.957Z,180.00
2023-02-02T08:58:31.945Z,164.00
2023-02-02T08:59:31.939Z,140.00
2023-02-02T09:00:31.916Z,128.00
2023-02-02T09:01:31.917Z,120.00
2023-02-02T09:02:32.011Z,136.00
2023-02-02T09:03:31.934Z,136.00
2023-02-02T09:04:31.891Z,136.00
2023-02-02T09:05:31.888Z,168.00
2023-02-02T09:06:31.872Z,148.00
2023-02-02T09:07:31.877Z,148.00
2023-02-02T09:08:31.900Z,148.00
2023-02-02T09:09:31.852Z,152.00
2023-02-02T09:10:31.848Z,156.00
2023-02-02T09:11:31.848Z,140.00
2023-02-02T09:12:31.815Z,152.00
2023-02-02T09:13:31.819Z,172.00
2023-02-02T09:14:31.817Z,188.00
2023-02-02T09:15:31.803Z,188.00
2023-02-02T09:16:31.894Z,188.00
2023-02-02T09:17:31.780Z,200.00
2023-02-02T09:18:31.778Z,228.00
2023-02-02T09:19:31.754Z,260.00
2023-02-02T09:20:31.764Z,256.00
2023-02-02T09:21:31.746Z,244.00
2023-02-02T09:22:31.738Z,256.00
2023-02-02T09:23:31.725Z,268.00
2023-02-02T09:24:31.729Z,248.00
2023-02-02T09:25:31.708Z,248.00
2023-02-02T09:26:31.744Z,248.00
2023-02-02T09:27:31.691Z,200.00
2023-02-02T09:28:31.684Z,228.00
2023-02-02T09:29:31.697Z,264.00
2023-02-02T09:30:31.670Z,268.00
2023-02-02T09:31:31.681Z,292.00
2023-02-02T09:32:31.648Z,236.00
2023-02-02T09:33:31.640Z,236.00
2023-02-02T09:34:31.669Z,252.00
2023-02-02T09:35:31.629Z,296.00
2023-02-02T09:36:31.617Z,304.00
2023-02-02T09:37:31.599Z,304.00
2023-02-02T09:38:31.616Z,380.00
2023-02-02T09:39:31.591Z,408.00
2023-02-02T09:40:31.580Z,344.00
2023-02-02T09:41:31.571Z,292.00
2023-02-02T09:42:31.571Z,296.00
2023-02-02T09:43:31.561Z,284.00
2023-02-02T09:44:31.566Z,240.00
2023-02-02T09:45:31.550Z,240.00
2023-02-02T09:46:31.528Z,276.00
2023-02-02T09:47:31.517Z,288.00
2023-02-02T09:48:31.514Z,292.00
2023-02-02T09:49:31.502Z,384.00
2023-02-02T09:50:31.507Z,380.00
2023-02-02T09:51:31.491Z,360.00
2023-02-02T09:52:31.482Z,360.00
2023-02-02T09:53:31.477Z,380.00
2023-02-02T09:54:31.462Z,468.00
2023-02-02T09:55:31.451Z,460.00
2023-02-02T09:56:31.442Z,552.00
2023-02-02T09:57:31.433Z,656.00
2023-02-02T09:58:31.434Z,632.00
2023-02-02T09:59:31.421Z,576.00
2023-02-02T10:00:31.418Z,464.00
2023-02-02T10:01:31.473Z,616.00
2023-02-02T10:02:31.386Z,464.00
2023-02-02T10:03:31.410Z,508.00
2023-02-02T10:04:31.382Z,664.00
2023-02-02T10:05:31.368Z,760.00
2023-02-02T10:06:31.395Z,564.00
2023-02-02T10:07:31.351Z,424.00
2023-02-02T10:08:35.132Z,504.00
2023-02-02T10:09:31.340Z,556.00
2023-02-02T10:10:31.327Z,516.00
2023-02-02T10:11:31.319Z,872.00
2023-02-02T10:12:31.316Z,920.00
2023-02-02T10:13:31.294Z,1056.00
2023-02-02T10:14:31.320Z,1348.00
2023-02-02T10:15:31.290Z,1012.00
2023-02-02T10:16:31.268Z,932.00
2023-02-02T10:17:31.282Z,716.00
2023-02-02T10:18:31.256Z,788.00
2023-02-02T10:19:31.251Z,824.00
2023-02-02T10:20:31.254Z,648.00
2023-02-02T10:21:31.244Z,532.00
2023-02-02T10:22:31.228Z,472.00
2023-02-02T10:23:31.226Z,448.00
2023-02-02T10:24:31.240Z,412.00
2023-02-02T10:25:31.204Z,488.00
2023-02-02T10:26:31.255Z,456.00
2023-02-02T10:27:31.184Z,460.00
2023-02-02T10:28:31.172Z,480.00
2023-02-02T10:29:43.273Z,468.00
2023-02-02T10:30:31.166Z,504.00
2023-02-02T10:31:31.234Z,452.00
2023-02-02T10:32:31.150Z,540.00
2023-02-02T10:33:31.137Z,468.00
2023-02-02T10:34:31.127Z,772.00
2023-02-02T10:35:31.125Z,772.00
2023-02-02T10:36:31.112Z,824.00
2023-02-02T10:37:31.106Z,884.00
2023-02-02T10:38:31.274Z,792.00
2023-02-02T10:39:31.084Z,1016.00
2023-02-02T10:40:31.079Z,768.00
2023-02-02T10:41:31.091Z,796.00
2023-02-02T10:42:31.074Z,808.00
2023-02-02T10:43:31.054Z,704.00
2023-02-02T10:44:31.048Z,700.00
2023-02-02T10:45:31.045Z,700.00
2023-02-02T10:46:31.087Z,604.00
2023-02-02T10:47:31.061Z,740.00
2023-02-02T10:48:31.015Z,700.00
2023-02-02T10:49:31.096Z,692.00
2023-02-02T10:50:31.031Z,884.00
2023-02-02T10:51:31.014Z,836.00
2023-02-02T10:52:30.983Z,784.00
2023-02-02T10:53:30.974Z,672.00
2023-02-02T10:54:30.969Z,628.00
2023-02-02T10:55:30.989Z,548.00
2023-02-02T10:56:31.000Z,788.00
2023-02-02T10:57:30.943Z,736.00
2023-02-02T10:58:30.939Z,624.00
2023-02-02T10:59:30.925Z,508.00
2023-02-02T11:00:30.949Z,568.00
2023-02-02T11:01:30.984Z,612.00
2023-02-02T11:02:30.949Z,632.00
2023-02-02T11:03:30.893Z,700.00
2023-02-02T11:04:30.898Z,588.00
2023-02-02T11:05:30.881Z,684.00
2023-02-02T11:06:30.875Z,784.00
2023-02-02T11:07:30.903Z,612.00
2023-02-02T11:08:30.857Z,616.00
2023-02-02T11:09:30.853Z,656.00
2023-02-02T11:10:30.879Z,732.00
2023-02-02T11:11:30.829Z,788.00
2023-02-02T11:12:30.820Z,796.00
2023-02-02T11:13:30.820Z,664.00
2023-02-02T11:14:30.820Z,744.00
2023-02-02T11:15:30.815Z,636.00
2023-02-02T11:16:42.267Z,632.00
2023-02-02T11:17:30.782Z,552.00
2023-02-02T11:18:30.762Z,616.00
2023-02-02T11:19:30.776Z,604.00
2023-02-02T11:20:30.754Z,720.00
2023-02-02T11:21:30.746Z,792.00
2023-02-02T11:22:30.735Z,628.00
2023-02-02T11:23:30.778Z,616.00
2023-02-02T11:24:30.717Z,532.00
2023-02-02T11:25:30.732Z,524.00
2023-02-02T11:26:30.721Z,548.00
2023-02-02T11:27:30.693Z,564.00
2023-02-02T11:28:30.687Z,628.00
2023-02-02T11:29:30.677Z,804.00
2023-02-02T11:30:30.670Z,640.00
2023-02-02T11:31:30.768Z,636.00
2023-02-02T11:32:30.677Z,616.00
2023-02-02T11:33:30.649Z,488.00
2023-02-02T11:34:30.636Z,480.00
2023-02-02T11:35:30.630Z,532.00
2023-02-02T11:36:30.620Z,440.00
2023-02-02T11:37:30.608Z,408.00
2023-02-02T11:38:30.633Z,444.00
2023-02-02T11:39:30.607Z,452.00
2023-02-02T11:40:30.586Z,648.00
2023-02-02T11:41:30.579Z,540.00
2023-02-02T11:42:30.572Z,564.00
2023-02-02T11:43:30.568Z,656.00
2023-02-02T11:44:30.564Z,528.00
2023-02-02T11:45:30.547Z,528.00
2023-02-02T11:46:30.624Z,496.00
2023-02-02T11:47:30.536Z,528.00
2023-02-02T11:48:30.527Z,436.00
2023-02-02T11:49:30.521Z,468.00
2023-02-02T11:50:30.506Z,428.00
2023-02-02T11:51:30.687Z,428.00
2023-02-02T11:52:32.480Z,476.00
2023-02-02T11:53:30.500Z,536.00
2023-02-02T11:54:30.501Z,500.00
2023-02-02T11:55:30.463Z,452.00
2023-02-02T11:56:30.459Z,548.00
2023-02-02T11:57:30.453Z,512.00
2023-02-02T11:58:30.441Z,512.00
2023-02-02T11:59:30.443Z,440.00
2023-02-02T12:00:30.433Z,508.00
2023-02-02T12:01:30.425Z,440.00
2023-02-02T12:02:30.419Z,532.00
2023-02-02T12:03:30.418Z,532.00
2023-02-02T12:04:32.512Z,472.00
2023-02-02T12:05:30.389Z,508.00
2023-02-02T12:06:30.384Z,464.00
2023-02-02T12:07:30.374Z,472.00
2023-02-02T12:08:30.360Z,440.00
2023-02-02T12:09:30.361Z,480.00
2023-02-02T12:10:33.497Z,560.00
2023-02-02T12:11:30.338Z,516.00
2023-02-02T12:12:30.328Z,588.00
2023-02-02T12:13:30.336Z,560.00
2023-02-02T12:14:30.312Z,628.00
2023-02-02T12:15:30.335Z,532.00
2023-02-02T12:16:30.336Z,576.00
2023-02-02T12:17:30.294Z,588.00
2023-02-02T12:18:30.283Z,520.00
2023-02-02T12:19:30.270Z,604.00
2023-02-02T12:20:30.274Z,592.00
2023-02-02T12:21:30.280Z,668.00
2023-02-02T12:22:30.243Z,840.00
2023-02-02T12:23:30.241Z,924.00
2023-02-02T12:24:30.248Z,868.00
2023-02-02T12:25:30.240Z,984.00
2023-02-02T12:26:30.269Z,1096.00
2023-02-02T12:27:30.213Z,1096.00
2023-02-02T12:28:30.211Z,1140.00
2023-02-02T12:29:30.196Z,992.00
2023-02-02T12:30:30.205Z,968.00
2023-02-02T12:31:30.222Z,1016.00
2023-02-02T12:32:30.163Z,996.00
2023-02-02T12:33:30.179Z,1040.00
2023-02-02T12:34:30.161Z,968.00
2023-02-02T12:35:30.145Z,996.00
2023-02-02T12:36:30.153Z,988.00
2023-02-02T12:37:30.131Z,932.00
2023-02-02T12:38:30.126Z,928.00
2023-02-02T12:39:30.117Z,812.00
2023-02-02T12:40:30.140Z,884.00
2023-02-02T12:41:30.101Z,824.00
2023-02-02T12:42:30.089Z,748.00
2023-02-02T12:43:30.082Z,560.00
2023-02-02T12:44:30.073Z,604.00
2023-02-02T12:45:30.120Z,752.00
2023-02-02T12:46:30.061Z,648.00
2023-02-02T12:47:30.053Z,612.00
2023-02-02T12:48:30.043Z,704.00
2023-02-02T12:49:30.052Z,620.00
2023-02-02T12:50:30.049Z,668.00
2023-02-02T12:51:30.020Z,720.00
2023-02-02T12:52:30.027Z,732.00
2023-02-02T12:53:30.005Z,808.00
2023-02-02T12:54:32.813Z,708.00
2023-02-02T12:55:29.984Z,688.00
2023-02-02T12:56:29.976Z,708.00
2023-02-02T12:57:29.993Z,608.00